createdAt,value
2022-12-30T00:00:13.818Z,15.63
2022-12-30T00:03:01.031Z,14.77
2022-12-30T00:05:48.106Z,14.07
2022-12-30T00:08:50.003Z,14.60
2022-12-30T00:11:38.043Z,16.57
2022-12-30T00:14:43.686Z,19.10
2022-12-30T00:17:49.310Z,16.87
2022-12-30T00:20:54.976Z,12.97
2022-12-30T00:24:00.453Z,12.30
2022-12-30T00:27:06.090Z,12.10
2022-12-30T00:30:11.330Z,14.23
2022-12-30T00:33:07.726Z,17.00
2022-12-30T00:35:54.793Z,11.13
2022-12-30T00:38:43.788Z,11.77
2022-12-30T00:41:49.458Z,11.40
2022-12-30T00:44:36.454Z,13.67
2022-12-30T00:47:23.560Z,10.03
2022-12-30T00:50:29.665Z,10.27
2022-12-30T00:53:35.148Z,12.93
2022-12-30T00:56:22.190Z,8.47
2022-12-30T00:59:09.389Z,13.20
2022-12-30T01:01:56.585Z,8.47
2022-12-30T01:04:43.659Z,13.90
2022-12-30T01:07:30.672Z,13.47
2022-12-30T01:10:17.678Z,12.97
2022-12-30T01:13:04.691Z,15.97
2022-12-30T01:15:51.681Z,12.87
2022-12-30T01:18:38.776Z,9.27
2022-12-30T01:21:25.818Z,10.13
2022-12-30T01:24:12.783Z,9.80
2022-12-30T01:26:59.751Z,12.80
2022-12-30T01:29:46.764Z,10.97
2022-12-30T01:32:36.290Z,11.40
2022-12-30T01:35:23.266Z,11.50
2022-12-30T01:38:10.306Z,10.20
2022-12-30T01:40:57.646Z,13.17
2022-12-30T01:43:50.503Z,10.90
2022-12-30T01:46:37.631Z,10.23
2022-12-30T01:49:24.747Z,12.03
2022-12-30T01:52:13.706Z,11.13
2022-12-30T01:55:09.747Z,14.63
2022-12-30T01:57:58.110Z,12.10
2022-12-30T02:00:46.459Z,13.17
2022-12-30T02:03:38.225Z,14.20
2022-12-30T02:06:32.209Z,9.80
2022-12-30T02:09:19.847Z,13.23
2022-12-30T02:12:07.863Z,11.97
2022-12-30T02:14:57.073Z,14.13
2022-12-30T02:17:57.493Z,12.53
2022-12-30T02:21:22.905Z,16.10
2022-12-30T02:24:24.724Z,13.07
2022-12-30T02:27:55.020Z,11.43
2022-12-30T02:30:54.108Z,16.20
2022-12-30T02:34:19.579Z,15.97
2022-12-30T02:37:22.094Z,11.30
2022-12-30T02:40:17.575Z,9.27
2022-12-30T02:43:28.528Z,10.53
2022-12-30T02:46:15.866Z,9.13
2022-12-30T02:49:06.832Z,15.40
2022-12-30T02:52:13.423Z,12.40
2022-12-30T02:55:00.924Z,12.10
2022-12-30T02:57:47.970Z,12.87
2022-12-30T03:01:26.056Z,15.60
2022-12-30T03:04:19.001Z,9.87
2022-12-30T03:07:19.443Z,14.67
2022-12-30T03:10:42.077Z,12.80
2022-12-30T03:14:20.402Z,12.87
2022-12-30T03:17:15.874Z,10.30
2022-12-30T03:20:09.074Z,11.37
2022-12-30T03:23:15.636Z,16.27
2022-12-30T03:26:22.341Z,15.00
2022-12-30T03:29:14.830Z,15.17
2022-12-30T03:32:02.855Z,18.27
2022-12-30T03:34:50.494Z,14.93
2022-12-30T03:37:43.891Z,15.30
2022-12-30T03:40:36.338Z,15.27
2022-12-30T03:43:26.988Z,14.33
2022-12-30T03:46:13.963Z,9.97
2022-12-30T03:49:01.726Z,12.07
2022-12-30T03:51:48.690Z,20.90
2022-12-30T03:54:35.624Z,14.53
2022-12-30T03:57:22.673Z,15.10
2022-12-30T04:00:10.374Z,14.53
2022-12-30T04:02:57.383Z,10.50
2022-12-30T04:05:44.462Z,16.33
2022-12-30T04:08:31.421Z,15.70
2022-12-30T04:11:18.427Z,14.13
2022-12-30T04:14:05.338Z,13.17
2022-12-30T04:16:52.423Z,14.47
2022-12-30T04:19:39.362Z,21.10
2022-12-30T04:22:26.345Z,14.63
2022-12-30T04:25:13.247Z,10.90
2022-12-30T04:28:00.536Z,11.63
2022-12-30T04:30:51.145Z,15.10
2022-12-30T04:33:38.702Z,19.47
2022-12-30T04:36:25.760Z,15.57
2022-12-30T04:39:12.772Z,15.23
2022-12-30T04:41:59.670Z,11.67
2022-12-30T04:44:46.625Z,16.60
2022-12-30T04:47:33.579Z,15.73
2022-12-30T04:50:20.559Z,17.13
2022-12-30T04:53:07.503Z,13.60
2022-12-30T04:55:56.005Z,15.67
2022-12-30T04:58:42.929Z,13.40
2022-12-30T05:01:29.994Z,10.73
2022-12-30T05:04:17.006Z,15.70
2022-12-30T05:07:04.580Z,17.13
2022-12-30T05:09:51.551Z,13.17
2022-12-30T05:12:38.520Z,15.67
2022-12-30T05:15:25.578Z,13.97
2022-12-30T05:18:12.596Z,14.90
2022-12-30T05:20:59.556Z,21.30
2022-12-30T05:24:05.296Z,18.73
2022-12-30T05:26:52.209Z,15.53
2022-12-30T05:29:39.166Z,13.63
2022-12-30T05:32:26.114Z,15.20
2022-12-30T05:35:13.132Z,15.23
2022-12-30T05:38:00.115Z,10.63
2022-12-30T05:40:47.105Z,16.30
2022-12-30T05:43:34.102Z,14.10
2022-12-30T05:46:23.212Z,14.03
2022-12-30T05:49:10.276Z,20.07
2022-12-30T05:51:57.322Z,10.70
2022-12-30T05:54:44.434Z,13.97
2022-12-30T05:57:31.409Z,13.00
2022-12-30T06:00:18.477Z,17.60
2022-12-30T06:03:05.795Z,9.20
2022-12-30T06:05:59.151Z,13.30
2022-12-30T06:08:46.080Z,14.17
2022-12-30T06:11:32.990Z,12.13
2022-12-30T06:14:20.906Z,18.47
2022-12-30T06:17:07.846Z,11.27
2022-12-30T06:19:54.887Z,13.63
2022-12-30T06:22:41.868Z,15.10
2022-12-30T06:25:28.833Z,10.87
2022-12-30T06:28:15.787Z,21.43
2022-12-30T06:31:03.306Z,13.20
2022-12-30T06:33:50.427Z,15.20
2022-12-30T06:36:37.482Z,16.50
2022-12-30T06:39:24.527Z,11.47
2022-12-30T06:42:11.483Z,13.43
2022-12-30T06:44:58.568Z,9.80
2022-12-30T06:47:45.557Z,12.13
2022-12-30T06:50:33.100Z,12.53
2022-12-30T06:53:20.074Z,10.43
2022-12-30T06:56:08.083Z,15.20
2022-12-30T06:58:55.071Z,12.37
2022-12-30T07:01:42.125Z,13.57
2022-12-30T07:04:29.197Z,14.77
2022-12-30T07:07:16.184Z,11.60
2022-12-30T07:10:03.882Z,10.63
2022-12-30T07:12:50.885Z,10.47
2022-12-30T07:15:37.875Z,9.87
2022-12-30T07:18:24.939Z,13.33
2022-12-30T07:21:11.898Z,10.83
2022-12-30T07:23:59.344Z,13.80
2022-12-30T07:26:46.302Z,11.13
2022-12-30T07:29:33.260Z,14.27
2022-12-30T07:32:20.828Z,13.17
2022-12-30T07:35:08.631Z,10.03
2022-12-30T07:37:55.882Z,10.50
2022-12-30T07:40:42.873Z,13.00
2022-12-30T07:43:29.804Z,10.40
2022-12-30T07:46:17.128Z,9.87
2022-12-30T07:49:04.247Z,12.77
2022-12-30T07:51:51.286Z,10.00
2022-12-30T07:54:38.250Z,18.97
2022-12-30T07:57:25.396Z,13.97
2022-12-30T08:00:13.354Z,7.57
2022-12-30T08:03:00.350Z,9.67
2022-12-30T08:05:47.354Z,10.07
2022-12-30T08:08:34.757Z,12.60
2022-12-30T08:11:21.764Z,10.20
2022-12-30T08:14:08.792Z,11.73
2022-12-30T08:16:55.817Z,11.03
2022-12-30T08:19:42.773Z,14.23
2022-12-30T08:22:30.249Z,10.90
2022-12-30T08:25:17.195Z,10.57
2022-12-30T08:28:04.280Z,10.87
2022-12-30T08:30:51.187Z,9.70
2022-12-30T08:33:38.258Z,10.20
2022-12-30T08:36:27.500Z,15.57
2022-12-30T08:39:15.011Z,15.40
2022-12-30T08:42:02.098Z,8.73
2022-12-30T08:44:49.114Z,11.13
2022-12-30T08:47:37.273Z,7.60
2022-12-30T08:50:24.467Z,8.47
2022-12-30T08:53:12.277Z,7.93
2022-12-30T08:56:09.239Z,11.17
2022-12-30T08:58:57.893Z,11.27
2022-12-30T09:01:45.719Z,11.43
2022-12-30T09:04:33.003Z,6.03
2022-12-30T09:07:48.047Z,12.23
2022-12-30T09:10:27.704Z,7.00
2022-12-30T09:13:14.742Z,10.83
2022-12-30T09:16:01.707Z,8.80
2022-12-30T09:18:49.973Z,9.30
2022-12-30T09:21:36.938Z,5.50
2022-12-30T09:24:23.887Z,7.30
2022-12-30T09:27:10.801Z,9.30
2022-12-30T09:29:57.827Z,5.83
2022-12-30T09:32:44.743Z,6.47
2022-12-30T09:35:32.058Z,6.10
2022-12-30T09:38:19.023Z,8.07
2022-12-30T09:41:19.914Z,12.30
2022-12-30T09:44:32.785Z,10.33
2022-12-30T09:47:23.708Z,6.67
2022-12-30T09:50:21.601Z,7.63
2022-12-30T09:53:20.804Z,5.20
2022-12-30T09:56:20.446Z,8.67
2022-12-30T09:59:25.032Z,8.83
2022-12-30T10:02:29.336Z,7.93
2022-12-30T10:05:16.691Z,8.67
2022-12-30T10:08:22.299Z,7.70
2022-12-30T10:11:28.981Z,10.57
2022-12-30T10:14:41.587Z,9.20
2022-12-30T10:17:38.232Z,7.67
2022-12-30T10:20:37.232Z,6.73
2022-12-30T10:23:35.511Z,5.70
2022-12-30T10:26:27.625Z,11.53
2022-12-30T10:29:35.354Z,11.87
2022-12-30T10:32:26.163Z,10.83
2022-12-30T10:35:19.981Z,7.37
2022-12-30T10:38:19.998Z,10.23
2022-12-30T10:41:35.744Z,9.77
2022-12-30T10:44:38.989Z,9.50
2022-12-30T10:47:56.977Z,8.13
2022-12-30T10:50:47.833Z,9.60
2022-12-30T10:53:34.877Z,7.83
2022-12-30T10:56:28.001Z,6.63
2022-12-30T10:59:22.729Z,7.07
2022-12-30T11:02:18.950Z,8.27
2022-12-30T11:05:32.649Z,6.63
2022-12-30T11:08:26.794Z,6.47
2022-12-30T11:11:14.220Z,7.83
2022-12-30T11:14:19.876Z,7.03
2022-12-30T11:17:34.164Z,6.27
2022-12-30T11:20:40.616Z,9.90
2022-12-30T11:23:37.072Z,8.47
2022-12-30T11:26:27.026Z,10.70
2022-12-30T11:29:20.916Z,8.87
2022-12-30T11:32:12.215Z,8.13
2022-12-30T11:34:59.220Z,8.07
2022-12-30T11:37:47.016Z,5.87
2022-12-30T11:40:37.157Z,9.70
2022-12-30T11:43:24.888Z,8.27
2022-12-30T11:46:15.968Z,8.83
2022-12-30T11:49:06.580Z,6.43
2022-12-30T11:51:56.681Z,8.63
2022-12-30T11:54:51.595Z,9.33
2022-12-30T11:57:43.434Z,8.10
2022-12-30T12:00:42.180Z,7.57
2022-12-30T12:03:30.731Z,9.17
2022-12-30T12:06:17.851Z,6.27
2022-12-30T12:09:15.383Z,10.83
2022-12-30T12:12:08.242Z,6.43
2022-12-30T12:15:10.326Z,9.90
2022-12-30T12:18:06.507Z,5.60
2022-12-30T12:20:56.476Z,6.07
2022-12-30T12:23:51.757Z,5.60
2022-12-30T12:27:17.483Z,7.33
2022-12-30T12:30:04.705Z,6.60
2022-12-30T12:33:06.767Z,3.70
2022-12-30T12:36:05.226Z,5.30
2022-12-30T12:38:57.473Z,6.80
2022-12-30T12:41:55.057Z,7.40
2022-12-30T12:45:24.739Z,6.07
2022-12-30T12:48:48.885Z,6.73
2022-12-30T12:52:09.617Z,4.43
2022-12-30T12:55:15.248Z,5.40
2022-12-30T12:58:10.128Z,8.10
2022-12-30T13:01:37.138Z,5.60
2022-12-30T13:04:37.248Z,4.53
2022-12-30T13:08:16.971Z,8.10
2022-12-30T13:14:01.013Z,4.90
2022-12-30T13:16:52.893Z,5.80
2022-12-30T13:19:43.441Z,6.73
2022-12-30T13:22:35.884Z,5.60
2022-12-30T13:25:28.689Z,5.33
2022-12-30T13:28:22.551Z,7.30
2022-12-30T13:31:48.479Z,6.00
2022-12-30T13:34:49.350Z,5.50
2022-12-30T13:37:52.214Z,8.30
2022-12-30T13:41:11.457Z,4.83
2022-12-30T13:44:01.078Z,4.83
2022-12-30T13:46:55.234Z,2.53
2022-12-30T13:49:42.312Z,5.67
2022-12-30T13:52:31.100Z,3.67
2022-12-30T13:55:21.614Z,6.40
2022-12-30T13:58:35.105Z,4.27
2022-12-30T14:01:32.957Z,4.53
2022-12-30T14:04:30.901Z,3.27
2022-12-30T14:07:39.690Z,9.40
2022-12-30T14:11:06.443Z,6.67
2022-12-30T14:14:17.789Z,4.77
2022-12-30T14:17:17.338Z,7.63
2022-12-30T14:20:21.665Z,4.93
2022-12-30T14:23:49.722Z,4.03
2022-12-30T14:26:39.885Z,8.10
2022-12-30T14:29:35.240Z,6.33
2022-12-30T14:32:26.579Z,6.17
2022-12-30T14:35:18.720Z,6.37
2022-12-30T14:38:37.728Z,7.17
2022-12-30T14:41:39.761Z,4.73
2022-12-30T14:44:29.216Z,6.73
2022-12-30T14:47:37.617Z,2.27
2022-12-30T14:50:30.322Z,5.50
2022-12-30T14:53:17.958Z,6.23
2022-12-30T14:56:05.286Z,4.50
2022-12-30T14:58:53.141Z,4.23
2022-12-30T15:01:40.364Z,6.40
2022-12-30T15:04:27.423Z,4.50
2022-12-30T15:07:22.275Z,4.73
2022-12-30T15:10:26.379Z,6.00
2022-12-30T15:13:20.828Z,7.27
2022-12-30T15:16:15.230Z,5.20
2022-12-30T15:19:02.633Z,5.97
2022-12-30T15:21:49.738Z,4.27
2022-12-30T15:24:41.664Z,4.90
2022-12-30T15:27:33.110Z,6.20
2022-12-30T15:30:20.311Z,5.23
2022-12-30T15:33:10.932Z,6.60
2022-12-30T15:35:58.139Z,3.90
2022-12-30T15:38:45.408Z,2.87
2022-12-30T15:41:35.772Z,6.93
2022-12-30T15:44:27.226Z,3.57
2022-12-30T15:47:37.241Z,6.80
2022-12-30T15:50:36.191Z,1.77
2022-12-30T15:53:29.426Z,4.90
2022-12-30T15:56:21.201Z,2.33
2022-12-30T15:59:09.524Z,3.03
2022-12-30T16:01:57.988Z,2.50
2022-12-30T16:04:45.564Z,3.93
2022-12-30T16:07:37.355Z,4.40
2022-12-30T16:10:30.869Z,2.80
2022-12-30T16:13:30.578Z,2.60
2022-12-30T16:16:26.951Z,3.23
2022-12-30T16:19:22.717Z,2.90
2022-12-30T16:22:22.922Z,3.27
2022-12-30T16:25:23.561Z,3.33
2022-12-30T16:28:40.288Z,3.77
2022-12-30T16:31:27.282Z,4.07
2022-12-30T16:34:14.323Z,5.37
2022-12-30T16:37:22.617Z,6.10
2022-12-30T16:40:21.874Z,2.60
2022-12-30T16:43:16.031Z,3.33
2022-12-30T16:46:07.071Z,3.07
2022-12-30T16:48:55.095Z,3.30
2022-12-30T16:51:51.997Z,4.00
2022-12-30T16:54:43.094Z,2.43
2022-12-30T16:57:30.376Z,2.20
2022-12-30T17:00:37.076Z,2.67
2022-12-30T17:03:28.899Z,2.70
2022-12-30T17:06:17.715Z,3.17
2022-12-30T17:09:05.959Z,4.20
2022-12-30T17:11:52.997Z,2.13
2022-12-30T17:14:40.025Z,1.97
2022-12-30T17:17:27.034Z,3.13
2022-12-30T17:20:14.634Z,2.40
2022-12-30T17:23:01.593Z,4.20
2022-12-30T17:25:49.484Z,4.20
2022-12-30T17:28:36.540Z,2.30
2022-12-30T17:31:29.889Z,2.37
2022-12-30T17:34:17.776Z,3.87
2022-12-30T17:37:04.711Z,2.33
2022-12-30T17:39:53.228Z,2.90
2022-12-30T17:42:40.212Z,4.33
2022-12-30T17:45:27.200Z,10.80
2022-12-30T17:48:20.627Z,3.17
2022-12-30T17:51:10.629Z,3.47
2022-12-30T17:53:58.671Z,2.23
2022-12-30T17:56:45.685Z,1.83
2022-12-30T17:59:32.659Z,2.30
2022-12-30T18:02:19.698Z,2.53
2022-12-30T18:05:10.482Z,2.00
2022-12-30T18:07:57.485Z,2.67
2022-12-30T18:10:45.264Z,3.13
2022-12-30T18:13:35.302Z,5.10
2022-12-30T18:16:25.455Z,3.23
2022-12-30T18:19:13.213Z,2.80
2022-12-30T18:22:02.958Z,2.63
2022-12-30T18:24:50.627Z,2.13
2022-12-30T18:27:37.619Z,2.50
2022-12-30T18:30:24.653Z,1.30
2022-12-30T18:33:11.578Z,1.43
2022-12-30T18:35:58.546Z,2.07
2022-12-30T18:38:45.871Z,2.57
2022-12-30T18:41:33.962Z,3.63
2022-12-30T18:44:20.887Z,2.67
2022-12-30T18:47:07.896Z,3.97
2022-12-30T18:49:54.823Z,2.10
2022-12-30T18:52:41.972Z,3.33
2022-12-30T18:55:28.988Z,3.23
2022-12-30T18:58:15.932Z,2.53
2022-12-30T19:01:27.419Z,2.43
2022-12-30T19:04:16.178Z,2.03
2022-12-30T19:07:06.169Z,1.63
2022-12-30T19:09:53.167Z,3.10
2022-12-30T19:12:40.167Z,2.07
2022-12-30T19:15:27.106Z,2.10
2022-12-30T19:18:14.423Z,1.97
2022-12-30T19:21:03.552Z,2.13
2022-12-30T19:23:50.993Z,3.00
2022-12-30T19:26:38.171Z,3.20
2022-12-30T19:29:25.172Z,2.53
2022-12-30T19:32:12.289Z,1.97
2022-12-30T19:34:59.622Z,1.83
2022-12-30T19:37:49.141Z,2.50
2022-12-30T19:40:38.418Z,2.13
2022-12-30T19:43:30.657Z,2.07
2022-12-30T19:46:20.878Z,2.10
2022-12-30T19:49:10.218Z,2.13
2022-12-30T19:51:57.233Z,1.80
2022-12-30T19:54:44.323Z,2.70
2022-12-30T19:57:31.294Z,2.10
2022-12-30T20:00:19.783Z,1.70
2022-12-30T20:03:06.946Z,3.17
2022-12-30T20:05:54.054Z,2.70
2022-12-30T20:08:41.241Z,2.40
2022-12-30T20:11:39.211Z,1.93
2022-12-30T20:14:27.198Z,2.00
2022-12-30T20:17:14.240Z,2.80
2022-12-30T20:20:01.635Z,2.40
2022-12-30T20:22:50.015Z,1.90
2022-12-30T20:25:40.661Z,2.00
2022-12-30T20:28:27.671Z,4.13
2022-12-30T20:31:18.338Z,2.20
2022-12-30T20:34:06.767Z,2.03
2022-12-30T20:36:54.661Z,2.20
2022-12-30T20:39:41.708Z,2.27
2022-12-30T20:42:28.686Z,2.13
2022-12-30T20:45:15.909Z,1.77
2022-12-30T20:48:03.053Z,3.83
2022-12-30T20:50:50.112Z,2.17
2022-12-30T20:53:38.388Z,1.90
2022-12-30T20:56:27.264Z,2.10
2022-12-30T20:59:15.147Z,2.43
2022-12-30T21:02:02.481Z,2.87
2022-12-30T21:04:49.672Z,2.47
2022-12-30T21:07:37.121Z,2.43
2022-12-30T21:10:24.687Z,2.33
2022-12-30T21:13:11.644Z,2.20
2022-12-30T21:15:59.558Z,2.60
2022-12-30T21:18:47.126Z,3.80
2022-12-30T21:21:34.188Z,2.73
2022-12-30T21:24:21.101Z,2.23
2022-12-30T21:27:08.122Z,2.80
2022-12-30T21:29:55.048Z,2.73
2022-12-30T21:32:42.382Z,2.27
2022-12-30T21:35:29.393Z,2.67
2022-12-30T21:38:34.933Z,2.93
2022-12-30T21:41:40.898Z,2.63
2022-12-30T21:44:50.616Z,2.63
2022-12-30T21:48:10.875Z,3.03
2022-12-30T21:51:16.158Z,2.83
2022-12-30T21:54:22.765Z,4.37
2022-12-30T21:57:31.507Z,2.90
2022-12-30T22:00:42.170Z,3.07
2022-12-30T22:03:30.611Z,3.30
2022-12-30T22:06:17.588Z,3.20
2022-12-30T22:09:04.799Z,3.80
2022-12-30T22:11:52.162Z,3.40
2022-12-30T22:14:39.110Z,3.70
2022-12-30T22:17:26.028Z,3.73
2022-12-30T22:20:13.750Z,4.43
2022-12-30T22:23:04.116Z,4.90
2022-12-30T22:25:51.118Z,4.10
2022-12-30T22:28:38.184Z,4.83
2022-12-30T22:31:25.196Z,4.63
2022-12-30T22:34:12.106Z,5.10
2022-12-30T22:36:59.128Z,6.13
2022-12-30T22:39:46.077Z,5.77
2022-12-30T22:42:33.093Z,6.20
2022-12-30T22:45:20.653Z,5.73
2022-12-30T22:48:08.246Z,6.27
2022-12-30T22:50:55.145Z,5.97
2022-12-30T22:53:43.253Z,6.00
2022-12-30T22:56:30.383Z,5.80
2022-12-30T22:59:17.453Z,5.97
2022-12-30T23:02:05.002Z,5.60
2022-12-30T23:04:52.103Z,6.10
2022-12-30T23:07:40.551Z,5.40
2022-12-30T23:10:27.500Z,5.20
2022-12-30T23:13:35.373Z,4.93
2022-12-30T23:16:22.377Z,5.43
2022-12-30T23:19:09.478Z,5.57
2022-12-30T23:21:56.694Z,5.80
2022-12-30T23:25:02.084Z,5.47
2022-12-30T23:27:49.196Z,5.03
2022-12-30T23:30:36.133Z,4.97
2022-12-30T23:33:23.103Z,4.87
2022-12-30T23:36:13.186Z,4.53
2022-12-30T23:39:00.221Z,5.70
2022-12-30T23:41:47.226Z,5.03
2022-12-30T23:44:34.223Z,4.90
2022-12-30T23:47:21.216Z,5.23
2022-12-30T23:50:08.985Z,4.93
2022-12-30T23:52:55.914Z,4.47
2022-12-30T23:55:42.995Z,4.37
2022-12-30T23:58:29.923Z,4.67
